createdAt,value
2018-12-26T00:00:08.851Z,20.47
2018-12-26T00:03:14.878Z,21.90
2018-12-26T00:06:20.831Z,21.93
2018-12-26T00:09:26.896Z,19.77
2018-12-26T00:12:32.776Z,20.27
2018-12-26T00:15:38.799Z,17.73
2018-12-26T00:18:44.785Z,21.73
2018-12-26T00:21:50.705Z,15.37
2018-12-26T00:24:56.706Z,18.37
2018-12-26T00:28:02.670Z,17.57
2018-12-26T00:31:08.502Z,16.27
2018-12-26T00:34:14.453Z,18.10
2018-12-26T00:37:20.390Z,18.10
2018-12-26T00:40:26.333Z,17.93
2018-12-26T00:43:32.227Z,18.83
2018-12-26T00:46:38.180Z,14.50
2018-12-26T00:49:44.167Z,15.57
2018-12-26T00:52:50.360Z,14.23
2018-12-26T00:55:56.366Z,17.23
2018-12-26T00:59:02.329Z,17.90
2018-12-26T01:02:08.272Z,17.73
2018-12-26T01:05:14.168Z,15.70
2018-12-26T01:08:20.060Z,17.27
2018-12-26T01:11:40.020Z,17.17
2018-12-26T01:14:45.913Z,18.23
2018-12-26T01:17:51.947Z,16.57
2018-12-26T01:20:58.224Z,15.17
2018-12-26T01:24:04.196Z,17.80
2018-12-26T01:27:10.313Z,17.27
2018-12-26T01:30:16.242Z,16.70
2018-12-26T01:33:22.413Z,16.40
2018-12-26T01:36:28.384Z,13.70
2018-12-26T01:39:34.608Z,15.13
2018-12-26T01:42:40.566Z,22.43
2018-12-26T01:45:46.456Z,17.43
2018-12-26T01:48:52.344Z,17.10
2018-12-26T01:52:01.308Z,17.27
2018-12-26T01:55:07.610Z,18.27
2018-12-26T01:58:13.610Z,18.00
2018-12-26T02:01:19.751Z,19.63
2018-12-26T02:04:25.649Z,15.83
2018-12-26T02:07:31.697Z,15.93
2018-12-26T02:10:37.750Z,16.70
2018-12-26T02:13:43.669Z,16.07
2018-12-26T02:16:49.552Z,20.00
2018-12-26T02:19:55.530Z,19.43
2018-12-26T02:23:01.509Z,20.00
2018-12-26T02:26:07.516Z,17.33
2018-12-26T02:29:14.068Z,17.20
2018-12-26T02:32:20.217Z,19.00
2018-12-26T02:35:26.221Z,19.13
2018-12-26T02:38:32.145Z,20.70
2018-12-26T02:41:38.011Z,34.67
2018-12-26T02:44:44.180Z,24.43
2018-12-26T02:47:50.150Z,25.50
2018-12-26T02:50:56.024Z,17.23
2018-12-26T02:54:02.102Z,20.53
2018-12-26T02:57:08.127Z,16.50
2018-12-26T03:00:14.150Z,17.07
2018-12-26T03:03:20.159Z,16.37
2018-12-26T03:06:26.260Z,26.93
2018-12-26T03:09:32.120Z,22.60
2018-12-26T03:12:38.092Z,38.83
2018-12-26T03:15:44.137Z,222.17
2018-12-26T03:18:50.182Z,213.10
2018-12-26T03:21:56.491Z,84.20
2018-12-26T03:25:02.399Z,187.50
2018-12-26T03:28:08.288Z,42.17
2018-12-26T03:31:14.288Z,191.73
2018-12-26T03:34:20.359Z,155.20
2018-12-26T03:37:26.341Z,254.50
2018-12-26T03:40:32.557Z,181.97
2018-12-26T03:43:38.605Z,183.03
2018-12-26T03:46:45.309Z,166.13
2018-12-26T03:49:51.426Z,244.03
2018-12-26T03:52:57.401Z,173.70
2018-12-26T03:56:03.440Z,134.10
2018-12-26T03:59:09.330Z,139.10
2018-12-26T04:02:15.259Z,103.27
2018-12-26T04:05:21.294Z,134.97
2018-12-26T04:08:27.297Z,204.87
2018-12-26T04:11:33.668Z,63.33
2018-12-26T04:14:40.894Z,145.43
2018-12-26T04:17:46.823Z,124.77
2018-12-26T04:20:53.008Z,180.73
2018-12-26T04:23:58.985Z,113.57
2018-12-26T04:27:05.079Z,113.10
2018-12-26T04:30:13.485Z,92.50
2018-12-26T04:33:21.499Z,40.03
2018-12-26T04:36:27.468Z,80.27
2018-12-26T04:39:33.381Z,58.70
2018-12-26T04:42:39.436Z,44.70
2018-12-26T04:45:45.763Z,95.10
2018-12-26T04:48:51.819Z,67.60
2018-12-26T04:51:57.811Z,33.13
2018-12-26T04:55:03.796Z,86.80
2018-12-26T04:58:09.763Z,48.30
2018-12-26T05:01:15.742Z,50.10
2018-12-26T05:04:21.892Z,38.13
2018-12-26T05:07:27.782Z,52.63
2018-12-26T05:10:33.682Z,68.57
2018-12-26T05:13:39.586Z,93.80
2018-12-26T05:16:45.574Z,70.60
2018-12-26T05:19:51.541Z,128.70
2018-12-26T05:22:57.832Z,128.50
2018-12-26T05:26:04.039Z,130.77
2018-12-26T05:29:10.147Z,93.13
2018-12-26T05:32:16.064Z,82.77
2018-12-26T05:35:22.156Z,95.37
2018-12-26T05:38:30.336Z,56.90
2018-12-26T05:41:36.139Z,161.47
2018-12-26T05:44:41.966Z,91.80
2018-12-26T05:48:18.823Z,63.27
2018-12-26T05:51:41.821Z,73.63
2018-12-26T05:54:56.232Z,44.40
2018-12-26T05:58:02.394Z,63.93
2018-12-26T06:01:08.683Z,46.93
2018-12-26T06:04:16.798Z,52.93
2018-12-26T06:07:22.613Z,34.40
2018-12-26T06:10:28.588Z,64.67
2018-12-26T06:13:34.480Z,115.77
2018-12-26T06:16:41.694Z,143.70
2018-12-26T06:19:47.627Z,191.03
2018-12-26T06:22:53.551Z,179.50
2018-12-26T06:25:59.505Z,161.33
2018-12-26T06:29:05.569Z,118.07
2018-12-26T06:32:11.929Z,218.60
2018-12-26T06:35:17.786Z,204.23
2018-12-26T06:38:23.681Z,259.93
2018-12-26T06:41:29.650Z,181.77
2018-12-26T06:44:35.542Z,200.73
2018-12-26T06:47:41.430Z,99.70
2018-12-26T06:50:47.477Z,144.50
2018-12-26T06:53:53.436Z,104.73
2018-12-26T06:56:59.340Z,78.53
2018-12-26T07:00:05.283Z,120.33
2018-12-26T07:03:11.159Z,70.37
2018-12-26T07:06:17.116Z,131.23
2018-12-26T07:09:23.305Z,125.37
2018-12-26T07:12:29.146Z,113.40
2018-12-26T07:15:34.995Z,113.93
2018-12-26T07:18:40.830Z,124.13
2018-12-26T07:21:47.926Z,40.17
2018-12-26T07:24:54.065Z,46.03
2018-12-26T07:28:08.783Z,53.50
2018-12-26T07:31:07.659Z,35.47
2018-12-26T07:34:13.641Z,40.90
2018-12-26T07:37:19.573Z,113.90
2018-12-26T07:40:25.506Z,65.80
2018-12-26T07:43:31.358Z,61.20
2018-12-26T07:46:38.368Z,90.60
2018-12-26T07:49:44.313Z,52.50
2018-12-26T07:52:50.256Z,90.57
2018-12-26T07:55:56.194Z,115.60
2018-12-26T07:59:02.204Z,73.93
2018-12-26T08:02:08.123Z,120.00
2018-12-26T08:05:14.130Z,77.53
2018-12-26T08:08:20.042Z,43.10
2018-12-26T08:11:26.007Z,33.07
2018-12-26T08:14:32.056Z,37.20
2018-12-26T08:17:37.862Z,28.57
2018-12-26T08:20:43.864Z,31.83
2018-12-26T08:23:49.775Z,37.97
2018-12-26T08:26:55.707Z,33.37
2018-12-26T08:30:01.663Z,28.13
2018-12-26T08:33:07.836Z,45.43
2018-12-26T08:36:13.831Z,37.00
2018-12-26T08:39:19.652Z,29.37
2018-12-26T08:42:28.034Z,30.47
2018-12-26T08:45:33.931Z,26.07
2018-12-26T08:48:39.780Z,24.43
2018-12-26T08:51:45.729Z,23.00
2018-12-26T08:54:51.623Z,23.37
2018-12-26T08:57:57.495Z,21.37
2018-12-26T09:01:03.372Z,19.40
2018-12-26T09:04:10.906Z,22.07
2018-12-26T09:07:16.986Z,16.93
2018-12-26T09:10:22.867Z,12.77
2018-12-26T09:13:28.755Z,17.43
2018-12-26T09:16:34.711Z,15.20
2018-12-26T09:19:40.625Z,20.80
2018-12-26T09:22:46.440Z,22.33
2018-12-26T09:25:59.351Z,19.93
2018-12-26T09:29:05.309Z,24.87
2018-12-26T09:32:11.345Z,24.70
2018-12-26T09:35:17.305Z,23.67
2018-12-26T09:38:23.172Z,20.40
2018-12-26T09:41:29.205Z,21.13
2018-12-26T09:44:35.230Z,21.93
2018-12-26T09:47:41.377Z,21.03
2018-12-26T09:50:47.255Z,25.60
2018-12-26T09:53:53.973Z,18.40
2018-12-26T09:56:59.811Z,15.07
2018-12-26T10:00:06.348Z,17.70
2018-12-26T10:03:12.235Z,17.40
2018-12-26T10:06:18.197Z,20.70
2018-12-26T10:09:24.128Z,26.77
2018-12-26T10:12:30.036Z,25.67
2018-12-26T10:15:35.937Z,17.07
2018-12-26T10:18:41.934Z,15.47
2018-12-26T10:21:47.807Z,13.93
2018-12-26T10:24:53.764Z,13.73
2018-12-26T10:27:59.791Z,17.57
2018-12-26T10:31:05.794Z,15.70
2018-12-26T10:34:11.745Z,17.13
2018-12-26T10:37:17.803Z,16.43
2018-12-26T10:40:23.755Z,17.33
2018-12-26T10:43:29.931Z,12.90
2018-12-26T10:46:35.804Z,12.33
2018-12-26T10:49:41.667Z,15.47
2018-12-26T10:52:47.722Z,14.33
2018-12-26T10:55:53.746Z,14.70
2018-12-26T10:59:00.001Z,12.70
2018-12-26T11:02:06.029Z,14.97
2018-12-26T11:05:11.913Z,13.87
2018-12-26T11:08:17.882Z,15.73
2018-12-26T11:11:23.709Z,12.87
2018-12-26T11:14:29.677Z,12.70
2018-12-26T11:17:35.627Z,13.23
2018-12-26T11:20:41.590Z,14.40
2018-12-26T11:23:47.362Z,13.33
2018-12-26T11:26:53.226Z,15.00
2018-12-26T11:29:59.079Z,13.67
2018-12-26T11:33:05.056Z,13.50
2018-12-26T11:36:11.088Z,14.27
2018-12-26T11:39:17.003Z,12.87
2018-12-26T11:42:22.951Z,13.97
2018-12-26T11:45:28.826Z,15.77
2018-12-26T11:48:34.765Z,29.83
2018-12-26T11:51:40.775Z,16.60
2018-12-26T11:54:47.231Z,15.33
2018-12-26T11:57:53.098Z,14.33
2018-12-26T12:00:58.996Z,15.80
2018-12-26T12:04:05.035Z,12.97
2018-12-26T12:07:11.143Z,11.90
2018-12-26T12:10:17.161Z,16.37
2018-12-26T12:13:23.109Z,15.50
2018-12-26T12:16:29.009Z,15.57
2018-12-26T12:19:34.994Z,13.73
2018-12-26T12:22:40.916Z,12.67
2018-12-26T12:25:46.938Z,13.60
2018-12-26T12:28:52.886Z,13.47
2018-12-26T12:31:58.871Z,15.60
2018-12-26T12:35:04.837Z,14.30
2018-12-26T12:38:10.785Z,15.50
2018-12-26T12:41:16.703Z,11.20
2018-12-26T12:44:22.835Z,11.50
2018-12-26T12:47:28.805Z,11.67
2018-12-26T12:50:34.882Z,13.30
2018-12-26T12:53:40.763Z,12.83
2018-12-26T12:56:47.019Z,12.00
2018-12-26T12:59:53.001Z,15.17
2018-12-26T13:03:00.597Z,15.17
2018-12-26T13:06:07.036Z,12.37
2018-12-26T13:09:13.057Z,12.50
2018-12-26T13:12:19.184Z,13.20
2018-12-26T13:15:25.244Z,10.67
2018-12-26T13:18:31.812Z,13.73
2018-12-26T13:21:37.737Z,12.50
2018-12-26T13:24:43.689Z,9.87
2018-12-26T13:27:49.925Z,12.33
2018-12-26T13:30:55.856Z,11.17
2018-12-26T13:34:01.770Z,18.07
2018-12-26T13:37:07.644Z,14.90
2018-12-26T13:40:13.624Z,15.80
2018-12-26T13:43:19.586Z,12.77
2018-12-26T13:46:33.532Z,16.07
2018-12-26T13:49:33.239Z,12.03
2018-12-26T13:52:39.298Z,12.30
2018-12-26T13:55:45.183Z,14.93
2018-12-26T13:58:51.283Z,16.17
2018-12-26T14:01:57.352Z,11.43
2018-12-26T14:05:03.384Z,14.80
2018-12-26T14:08:10.505Z,12.70
2018-12-26T14:11:16.531Z,10.97
2018-12-26T14:14:22.427Z,11.30
2018-12-26T14:17:28.361Z,12.07
2018-12-26T14:20:34.372Z,11.87
2018-12-26T14:23:40.444Z,14.00
2018-12-26T14:26:46.394Z,10.87
2018-12-26T14:29:52.344Z,12.73
2018-12-26T14:32:58.383Z,12.03
2018-12-26T14:36:04.490Z,13.43
2018-12-26T14:39:10.483Z,15.20
2018-12-26T14:42:16.537Z,11.77
2018-12-26T14:45:22.511Z,19.10
2018-12-26T14:48:28.526Z,18.10
2018-12-26T14:51:34.514Z,14.30
2018-12-26T14:54:40.501Z,14.90
2018-12-26T14:57:46.482Z,17.57
2018-12-26T15:00:52.487Z,16.27
2018-12-26T15:03:58.554Z,13.27
2018-12-26T15:07:04.471Z,16.50
2018-12-26T15:10:11.429Z,13.03
2018-12-26T15:13:17.597Z,14.87
2018-12-26T15:16:23.999Z,30.10
2018-12-26T15:19:29.955Z,22.47
2018-12-26T15:22:44.824Z,53.63
2018-12-26T15:25:50.907Z,14.13
2018-12-26T15:28:56.964Z,13.80
2018-12-26T15:32:03.098Z,13.47
2018-12-26T15:35:08.880Z,11.43
2018-12-26T15:38:15.053Z,13.63
2018-12-26T15:41:21.029Z,13.47
2018-12-26T15:44:27.081Z,11.37
2018-12-26T15:47:33.023Z,11.90
2018-12-26T15:50:39.052Z,9.63
2018-12-26T15:53:44.883Z,14.17
2018-12-26T15:56:50.892Z,13.40
2018-12-26T15:59:56.858Z,13.80
2018-12-26T16:03:02.767Z,12.70
2018-12-26T16:06:08.623Z,11.73
2018-12-26T16:09:14.561Z,13.23
2018-12-26T16:12:20.480Z,12.03
2018-12-26T16:15:26.567Z,15.63
2018-12-26T16:18:32.566Z,14.87
2018-12-26T16:21:38.484Z,16.00
2018-12-26T16:24:44.378Z,10.80
2018-12-26T16:27:50.642Z,12.27
2018-12-26T16:30:56.800Z,11.07
2018-12-26T16:34:02.856Z,11.47
2018-12-26T16:37:08.755Z,11.30
2018-12-26T16:40:14.760Z,10.77
2018-12-26T16:43:20.769Z,11.10
2018-12-26T16:46:26.755Z,13.90
2018-12-26T16:49:32.664Z,16.20
2018-12-26T16:52:38.647Z,13.00
2018-12-26T16:55:44.595Z,14.90
2018-12-26T16:58:50.662Z,11.07
2018-12-26T17:01:56.591Z,14.47
2018-12-26T17:05:02.606Z,12.13
2018-12-26T17:08:08.549Z,11.63
2018-12-26T17:11:14.610Z,11.30
2018-12-26T17:14:20.650Z,12.03
2018-12-26T17:17:27.003Z,13.97
2018-12-26T17:20:32.839Z,29.27
2018-12-26T17:23:38.890Z,23.10
2018-12-26T17:26:44.931Z,20.70
2018-12-26T17:29:50.825Z,22.27
2018-12-26T17:33:00.642Z,24.00
2018-12-26T17:36:04.982Z,28.87
2018-12-26T17:39:11.199Z,39.67
2018-12-26T17:42:17.237Z,38.90
2018-12-26T17:45:26.663Z,73.23
2018-12-26T17:48:32.620Z,16.77
2018-12-26T17:51:38.535Z,20.83
2018-12-26T17:55:34.803Z,17.90
2018-12-26T17:58:53.216Z,17.13
2018-12-26T18:02:31.434Z,16.23
2018-12-26T18:05:37.298Z,17.67
2018-12-26T18:08:43.215Z,16.17
2018-12-26T18:11:51.501Z,20.73
2018-12-26T18:14:57.052Z,16.47
2018-12-26T18:18:03.169Z,15.67
2018-12-26T18:21:09.054Z,13.23
2018-12-26T18:24:15.292Z,13.07
2018-12-26T18:27:21.386Z,13.77
2018-12-26T18:30:27.339Z,15.80
2018-12-26T18:33:33.502Z,14.00
2018-12-26T18:36:39.696Z,14.40
2018-12-26T18:39:45.640Z,15.77
2018-12-26T18:42:54.774Z,18.13
2018-12-26T18:46:00.778Z,18.53
2018-12-26T18:49:06.709Z,15.50
2018-12-26T18:52:13.809Z,11.07
2018-12-26T18:55:19.924Z,39.00
2018-12-26T18:58:27.979Z,20.30
2018-12-26T19:01:33.868Z,17.27
2018-12-26T19:04:42.561Z,14.57
2018-12-26T19:07:48.567Z,16.73
2018-12-26T19:10:54.534Z,14.93
2018-12-26T19:14:00.858Z,15.03
2018-12-26T19:17:06.819Z,16.30
2018-12-26T19:20:13.370Z,14.53
2018-12-26T19:23:19.310Z,16.90
2018-12-26T19:26:25.481Z,16.63
2018-12-26T19:29:32.463Z,19.90
2018-12-26T19:32:38.786Z,20.33
2018-12-26T19:35:44.939Z,15.87
2018-12-26T19:38:57.730Z,17.37
2018-12-26T19:42:03.646Z,19.73
2018-12-26T19:45:10.481Z,19.23
2018-12-26T19:48:16.370Z,17.67
2018-12-26T19:51:22.216Z,18.33
2018-12-26T19:54:28.256Z,17.07
2018-12-26T19:57:34.146Z,19.90
2018-12-26T20:00:40.155Z,20.73
2018-12-26T20:03:46.060Z,19.90
2018-12-26T20:06:52.017Z,28.87
2018-12-26T20:09:58.246Z,60.83
2018-12-26T20:13:04.547Z,29.37
2018-12-26T20:16:10.589Z,26.07
2018-12-26T20:19:16.501Z,23.60
2018-12-26T20:22:22.438Z,20.10
2018-12-26T20:25:28.438Z,20.50
2018-12-26T20:28:34.386Z,23.40
2018-12-26T20:31:40.290Z,21.03
2018-12-26T20:34:46.235Z,21.40
2018-12-26T20:37:52.271Z,18.60
2018-12-26T20:40:58.241Z,20.97
2018-12-26T20:44:04.217Z,20.20
2018-12-26T20:47:10.156Z,21.83
2018-12-26T20:50:16.112Z,22.07
2018-12-26T20:53:22.083Z,22.63
2018-12-26T20:56:28.215Z,21.40
2018-12-26T20:59:34.129Z,23.20
2018-12-26T21:02:40.134Z,25.17
2018-12-26T21:05:46.147Z,27.60
2018-12-26T21:08:51.975Z,24.73
2018-12-26T21:11:57.956Z,26.90
2018-12-26T21:15:04.019Z,24.70
2018-12-26T21:18:09.975Z,25.43
2018-12-26T21:21:15.912Z,27.93
2018-12-26T21:24:21.914Z,31.70
2018-12-26T21:27:27.836Z,28.00
2018-12-26T21:30:33.954Z,27.00
2018-12-26T21:33:39.825Z,33.27
2018-12-26T21:36:45.798Z,30.87
2018-12-26T21:39:52.220Z,28.30
2018-12-26T21:42:58.245Z,25.47
2018-12-26T21:46:04.328Z,29.07
2018-12-26T21:49:10.247Z,45.40
2018-12-26T21:52:16.266Z,41.57
2018-12-26T21:55:22.232Z,38.73
2018-12-26T21:58:28.259Z,32.20
2018-12-26T22:01:34.244Z,29.17
2018-12-26T22:04:40.295Z,28.90
2018-12-26T22:07:46.846Z,32.57
2018-12-26T22:10:52.930Z,32.13
2018-12-26T22:13:58.899Z,36.20
2018-12-26T22:17:06.205Z,33.00
2018-12-26T22:20:12.193Z,33.70
2018-12-26T22:23:18.053Z,27.67
2018-12-26T22:26:24.217Z,27.83
2018-12-26T22:29:30.137Z,28.23
2018-12-26T22:32:36.161Z,23.97
2018-12-26T22:35:42.238Z,26.20
2018-12-26T22:38:48.169Z,26.23
2018-12-26T22:41:54.190Z,28.57
2018-12-26T22:45:00.160Z,45.23
2018-12-26T22:48:06.238Z,28.87
2018-12-26T22:51:12.238Z,29.73
2018-12-26T22:54:19.538Z,30.47
2018-12-26T22:57:25.893Z,26.17
2018-12-26T23:00:43.536Z,37.10
2018-12-26T23:03:49.510Z,39.43
2018-12-26T23:06:55.352Z,55.77
2018-12-26T23:10:01.527Z,50.57
2018-12-26T23:13:07.454Z,30.13
2018-12-26T23:16:13.389Z,28.50
2018-12-26T23:19:19.397Z,27.20
2018-12-26T23:22:25.271Z,26.17
2018-12-26T23:25:31.229Z,26.97
2018-12-26T23:28:37.242Z,26.33
2018-12-26T23:31:43.211Z,32.20
2018-12-26T23:34:49.142Z,30.23
2018-12-26T23:37:54.986Z,31.77
2018-12-26T23:41:00.903Z,32.83
2018-12-26T23:44:06.865Z,30.33
2018-12-26T23:47:12.843Z,27.83
2018-12-26T23:50:18.846Z,28.37
2018-12-26T23:53:24.764Z,26.43
2018-12-26T23:57:24.581Z,28.20
